createdAt,value
2019-02-17T00:00:35.483Z,1020.42
2019-02-17T00:01:35.289Z,1020.42
2019-02-17T00:02:35.763Z,1020.46
2019-02-17T00:03:35.255Z,1020.45
2019-02-17T00:04:35.323Z,1020.47
2019-02-17T00:05:35.285Z,1020.47
2019-02-17T00:06:36.232Z,1020.47
2019-02-17T00:07:35.493Z,1020.45
2019-02-17T00:08:35.198Z,1020.47
2019-02-17T00:09:35.179Z,1020.52
2019-02-17T00:10:35.205Z,1020.49
2019-02-17T00:11:35.189Z,1020.48
2019-02-17T00:12:35.872Z,1020.46
2019-02-17T00:13:35.141Z,1020.43
2019-02-17T00:14:35.222Z,1020.43
2019-02-17T00:15:35.123Z,1020.44
2019-02-17T00:16:35.129Z,1020.41
2019-02-17T00:17:35.111Z,1020.39
2019-02-17T00:18:35.395Z,1020.41
2019-02-17T00:19:35.119Z,1020.41
2019-02-17T00:20:35.082Z,1020.42
2019-02-17T00:21:35.181Z,1020.41
2019-02-17T00:22:35.057Z,1020.42
2019-02-17T00:23:35.087Z,1020.40
2019-02-17T00:24:35.386Z,1020.44
2019-02-17T00:25:35.022Z,1020.40
2019-02-17T00:26:35.022Z,1020.41
2019-02-17T00:27:35.000Z,1020.42
2019-02-17T00:28:35.179Z,1020.40
2019-02-17T00:29:35.601Z,1020.42
2019-02-17T00:30:36.541Z,1020.39
2019-02-17T00:31:34.972Z,1020.38
2019-02-17T00:32:34.982Z,1020.35
2019-02-17T00:33:34.941Z,1020.39
2019-02-17T00:34:38.952Z,1020.35
2019-02-17T00:35:34.896Z,1020.35
2019-02-17T00:36:34.955Z,1020.35
2019-02-17T00:37:34.878Z,1020.31
2019-02-17T00:38:35.035Z,1020.36
2019-02-17T00:39:34.891Z,1020.37
2019-02-17T00:40:35.451Z,1020.37
2019-02-17T00:41:34.849Z,1020.37
2019-02-17T00:42:34.836Z,1020.44
2019-02-17T00:43:34.862Z,1020.35
2019-02-17T00:44:34.815Z,1020.38
2019-02-17T00:45:34.803Z,1020.40
2019-02-17T00:46:34.969Z,1020.40
2019-02-17T00:47:34.781Z,1020.37
2019-02-17T00:48:34.768Z,1020.39
2019-02-17T00:49:34.746Z,1020.39
2019-02-17T00:50:34.779Z,1020.38
2019-02-17T00:51:35.135Z,1020.39
2019-02-17T00:52:34.782Z,1020.42
2019-02-17T00:53:34.847Z,1020.36
2019-02-17T00:54:34.713Z,1020.35
2019-02-17T00:55:35.553Z,1020.38
2019-02-17T00:56:34.680Z,1020.36
2019-02-17T00:57:35.499Z,1020.34
2019-02-17T00:58:34.721Z,1020.37
2019-02-17T00:59:34.655Z,1020.36
2019-02-17T01:00:35.357Z,1020.37
2019-02-17T01:01:41.327Z,1020.38
2019-02-17T01:02:34.877Z,1020.38
2019-02-17T01:03:36.608Z,1020.32
2019-02-17T01:04:34.649Z,1020.34
2019-02-17T01:05:34.760Z,1020.41
2019-02-17T01:06:34.649Z,1020.40
2019-02-17T01:07:34.560Z,1020.40
2019-02-17T01:08:34.739Z,1020.43
2019-02-17T01:09:34.547Z,1020.40
2019-02-17T01:10:34.899Z,1020.40
2019-02-17T01:11:34.513Z,1020.41
2019-02-17T01:12:34.510Z,1020.40
2019-02-17T01:13:34.488Z,1020.42
2019-02-17T01:14:34.471Z,1020.42
2019-02-17T01:15:34.579Z,1020.40
2019-02-17T01:16:34.808Z,1020.39
2019-02-17T01:17:34.463Z,1020.45
2019-02-17T01:18:34.435Z,1020.42
2019-02-17T01:19:34.437Z,1020.41
2019-02-17T01:20:34.409Z,1020.45
2019-02-17T01:21:34.413Z,1020.45
2019-02-17T01:22:34.522Z,1020.44
2019-02-17T01:23:34.469Z,1020.45
2019-02-17T01:24:34.390Z,1020.42
2019-02-17T01:25:34.472Z,1020.44
2019-02-17T01:26:34.345Z,1020.43
2019-02-17T01:27:34.661Z,1020.45
2019-02-17T01:28:34.325Z,1020.44
2019-02-17T01:29:34.476Z,1020.43
2019-02-17T01:30:34.326Z,1020.44
2019-02-17T01:31:34.301Z,1020.48
2019-02-17T01:32:34.279Z,1020.50
2019-02-17T01:33:34.289Z,1020.51
2019-02-17T01:34:34.337Z,1020.49
2019-02-17T01:35:34.559Z,1020.49
2019-02-17T01:36:34.241Z,1020.48
2019-02-17T01:37:34.225Z,1020.52
2019-02-17T01:38:34.242Z,1020.49
2019-02-17T01:39:34.269Z,1020.50
2019-02-17T01:40:34.323Z,1020.49
2019-02-17T01:41:34.487Z,1020.50
2019-02-17T01:42:34.280Z,1020.49
2019-02-17T01:43:34.371Z,1020.52
2019-02-17T01:44:34.419Z,1020.47
2019-02-17T01:45:34.157Z,1020.48
2019-02-17T01:46:34.215Z,1020.53
2019-02-17T01:47:34.632Z,1020.53
2019-02-17T01:48:34.599Z,1020.48
2019-02-17T01:49:34.180Z,1020.50
2019-02-17T01:50:34.167Z,1020.49
2019-02-17T01:51:34.185Z,1020.43
2019-02-17T01:52:34.205Z,1020.46
2019-02-17T01:53:34.623Z,1020.46
2019-02-17T01:54:34.152Z,1020.46
2019-02-17T01:55:34.133Z,1020.45
2019-02-17T01:56:34.135Z,1020.47
2019-02-17T01:57:34.472Z,1020.46
2019-02-17T01:58:34.031Z,1020.41
2019-02-17T01:59:34.150Z,1020.43
2019-02-17T02:00:33.990Z,1020.42
2019-02-17T02:01:34.275Z,1020.39
2019-02-17T02:02:33.950Z,1020.34
2019-02-17T02:03:34.646Z,1020.39
2019-02-17T02:04:33.940Z,1020.38
2019-02-17T02:05:33.925Z,1020.34
2019-02-17T02:06:38.242Z,1020.36
2019-02-17T02:07:34.218Z,1020.36
2019-02-17T02:08:35.828Z,1020.40
2019-02-17T02:09:34.020Z,1020.36
2019-02-17T02:10:33.866Z,1020.36
2019-02-17T02:11:33.867Z,1020.37
2019-02-17T02:12:33.867Z,1020.31
2019-02-17T02:13:33.826Z,1020.34
2019-02-17T02:14:34.172Z,1020.35
2019-02-17T02:15:33.809Z,1020.38
2019-02-17T02:16:33.862Z,1020.36
2019-02-17T02:17:34.150Z,1020.34
2019-02-17T02:18:34.177Z,1020.33
2019-02-17T02:19:33.995Z,1020.32
2019-02-17T02:20:33.812Z,1020.29
2019-02-17T02:21:33.753Z,1020.26
2019-02-17T02:22:35.528Z,1020.28
2019-02-17T02:23:33.722Z,1020.21
2019-02-17T02:24:34.303Z,1020.27
2019-02-17T02:25:34.175Z,1020.26
2019-02-17T02:26:33.722Z,1020.27
2019-02-17T02:27:33.679Z,1020.30
2019-02-17T02:28:33.671Z,1020.30
2019-02-17T02:29:40.740Z,1020.35
2019-02-17T02:30:35.039Z,1020.32
2019-02-17T02:31:33.693Z,1020.37
2019-02-17T02:32:33.643Z,1020.34
2019-02-17T02:33:38.715Z,1020.34
2019-02-17T02:34:33.639Z,1020.36
2019-02-17T02:35:33.616Z,1020.34
2019-02-17T02:36:33.950Z,1020.37
2019-02-17T02:37:33.560Z,1020.34
2019-02-17T02:38:33.564Z,1020.37
2019-02-17T02:39:33.662Z,1020.41
2019-02-17T02:40:33.614Z,1020.36
2019-02-17T02:41:35.210Z,1020.40
2019-02-17T02:42:35.339Z,1020.37
2019-02-17T02:43:33.495Z,1020.36
2019-02-17T02:44:33.510Z,1020.35
2019-02-17T02:45:33.484Z,1020.30
2019-02-17T02:46:33.481Z,1020.33
2019-02-17T02:47:33.468Z,1020.32
2019-02-17T02:48:33.735Z,1020.32
2019-02-17T02:49:33.656Z,1020.30
2019-02-17T02:50:33.502Z,1020.36
2019-02-17T02:51:35.514Z,1020.32
2019-02-17T02:52:33.435Z,1020.36
2019-02-17T02:53:33.404Z,1020.41
2019-02-17T02:54:33.870Z,1020.41
2019-02-17T02:55:33.852Z,1020.41
2019-02-17T02:56:33.379Z,1020.43
2019-02-17T02:57:33.367Z,1020.40
2019-02-17T02:58:33.344Z,1020.41
2019-02-17T02:59:33.317Z,1020.48
2019-02-17T03:00:33.439Z,1020.48
2019-02-17T03:01:33.317Z,1020.51
2019-02-17T03:02:33.410Z,1020.48
2019-02-17T03:03:33.435Z,1020.50
2019-02-17T03:04:33.651Z,1020.52
2019-02-17T03:05:33.295Z,1020.54
2019-02-17T03:06:33.257Z,1020.55
2019-02-17T03:07:33.918Z,1020.50
2019-02-17T03:08:34.634Z,1020.55
2019-02-17T03:09:34.510Z,1020.58
2019-02-17T03:10:33.290Z,1020.59
2019-02-17T03:11:33.391Z,1020.58
2019-02-17T03:12:33.255Z,1020.62
2019-02-17T03:13:33.170Z,1020.59
2019-02-17T03:14:33.689Z,1020.59
2019-02-17T03:15:33.720Z,1020.55
2019-02-17T03:16:33.151Z,1020.55
2019-02-17T03:17:33.486Z,1020.53
2019-02-17T03:18:33.111Z,1020.52
2019-02-17T03:19:33.120Z,1020.48
2019-02-17T03:20:33.126Z,1020.51
2019-02-17T03:21:33.097Z,1020.52
2019-02-17T03:22:33.532Z,1020.52
2019-02-17T03:23:33.058Z,1020.52
2019-02-17T03:24:33.047Z,1020.54
2019-02-17T03:25:33.044Z,1020.61
2019-02-17T03:26:33.081Z,1020.64
2019-02-17T03:27:33.011Z,1020.57
2019-02-17T03:28:33.635Z,1020.62
2019-02-17T03:29:33.090Z,1020.63
2019-02-17T03:30:33.001Z,1020.64
2019-02-17T03:31:33.117Z,1020.66
2019-02-17T03:32:39.978Z,1020.60
2019-02-17T03:33:32.996Z,1020.65
2019-02-17T03:34:33.077Z,1020.63
2019-02-17T03:35:32.932Z,1020.59
2019-02-17T03:36:32.912Z,1020.61
2019-02-17T03:37:32.944Z,1020.57
2019-02-17T03:38:32.884Z,1020.51
2019-02-17T03:39:32.995Z,1020.55
2019-02-17T03:40:33.085Z,1020.51
2019-02-17T03:41:33.842Z,1020.57
2019-02-17T03:42:32.909Z,1020.58
2019-02-17T03:43:37.138Z,1020.56
2019-02-17T03:44:32.841Z,1020.62
2019-02-17T03:45:33.036Z,1020.63
2019-02-17T03:46:32.957Z,1020.62
2019-02-17T03:47:32.787Z,1020.64
2019-02-17T03:48:32.891Z,1020.66
2019-02-17T03:49:32.804Z,1020.65
2019-02-17T03:50:32.765Z,1020.65
2019-02-17T03:51:32.799Z,1020.68
2019-02-17T03:52:33.121Z,1020.67
2019-02-17T03:53:32.722Z,1020.68
2019-02-17T03:54:32.767Z,1020.65
2019-02-17T03:55:32.721Z,1020.64
2019-02-17T03:56:32.801Z,1020.64
2019-02-17T03:57:32.702Z,1020.65
2019-02-17T03:58:33.263Z,1020.65
2019-02-17T03:59:32.666Z,1020.66
2019-02-17T04:00:32.664Z,1020.66
2019-02-17T04:01:32.648Z,1020.68
2019-02-17T04:02:33.210Z,1020.67
2019-02-17T04:03:32.754Z,1020.69
2019-02-17T04:04:33.133Z,1020.62
2019-02-17T04:05:32.595Z,1020.67
2019-02-17T04:06:32.594Z,1020.62
2019-02-17T04:07:32.922Z,1020.64
2019-02-17T04:08:32.934Z,1020.64
2019-02-17T04:09:33.967Z,1020.64
2019-02-17T04:10:37.215Z,1020.70
2019-02-17T04:11:33.698Z,1020.65
2019-02-17T04:12:32.521Z,1020.68
2019-02-17T04:13:32.587Z,1020.66
2019-02-17T04:14:32.503Z,1020.66
2019-02-17T04:15:32.524Z,1020.72
2019-02-17T04:16:32.683Z,1020.63
2019-02-17T04:17:32.830Z,1020.65
2019-02-17T04:18:33.611Z,1020.64
2019-02-17T04:19:32.444Z,1020.61
2019-02-17T04:20:32.436Z,1020.64
2019-02-17T04:21:33.461Z,1020.63
2019-02-17T04:22:32.443Z,1020.60
2019-02-17T04:23:32.632Z,1020.64
2019-02-17T04:24:32.517Z,1020.66
2019-02-17T04:25:32.369Z,1020.63
2019-02-17T04:26:32.630Z,1020.58
2019-02-17T04:27:32.385Z,1020.61
2019-02-17T04:28:32.695Z,1020.61
2019-02-17T04:29:32.363Z,1020.62
2019-02-17T04:30:32.321Z,1020.65
2019-02-17T04:31:32.669Z,1020.66
2019-02-17T04:32:32.348Z,1020.68
2019-02-17T04:33:33.883Z,1020.66
2019-02-17T04:34:32.716Z,1020.61
2019-02-17T04:35:32.257Z,1020.63
2019-02-17T04:36:32.270Z,1020.62
2019-02-17T04:37:32.257Z,1020.64
2019-02-17T04:38:32.229Z,1020.64
2019-02-17T04:39:34.735Z,1020.65
2019-02-17T04:40:32.864Z,1020.67
2019-02-17T04:41:32.199Z,1020.62
2019-02-17T04:42:32.195Z,1020.66
2019-02-17T04:43:32.952Z,1020.64
2019-02-17T04:44:32.525Z,1020.65
2019-02-17T04:45:32.238Z,1020.64
2019-02-17T04:46:32.677Z,1020.65
2019-02-17T04:47:32.134Z,1020.62
2019-02-17T04:48:32.128Z,1020.59
2019-02-17T04:49:32.113Z,1020.61
2019-02-17T04:50:32.110Z,1020.64
2019-02-17T04:51:32.206Z,1020.63
2019-02-17T04:52:32.692Z,1020.63
2019-02-17T04:53:32.169Z,1020.62
2019-02-17T04:54:32.150Z,1020.61
2019-02-17T04:55:32.156Z,1020.56
2019-02-17T04:56:32.778Z,1020.57
2019-02-17T04:57:32.018Z,1020.54
2019-02-17T04:58:32.021Z,1020.56
2019-02-17T04:59:31.998Z,1020.53
2019-02-17T05:00:40.205Z,1020.54
2019-02-17T05:01:33.225Z,1020.56
2019-02-17T05:02:32.171Z,1020.55
2019-02-17T05:03:31.965Z,1020.54
2019-02-17T05:04:31.975Z,1020.53
2019-02-17T05:05:31.934Z,1020.54
2019-02-17T05:06:31.925Z,1020.51
2019-02-17T05:07:32.476Z,1020.55
2019-02-17T05:08:31.905Z,1020.54
2019-02-17T05:09:33.558Z,1020.53
2019-02-17T05:10:32.618Z,1020.52
2019-02-17T05:11:32.096Z,1020.53
2019-02-17T05:12:32.065Z,1020.54
2019-02-17T05:13:32.117Z,1020.51
2019-02-17T05:14:33.064Z,1020.50
2019-02-17T05:15:32.146Z,1020.53
2019-02-17T05:16:32.858Z,1020.52
2019-02-17T05:17:32.211Z,1020.52
2019-02-17T05:18:31.793Z,1020.53
2019-02-17T05:19:31.915Z,1020.53
2019-02-17T05:20:31.765Z,1020.55
2019-02-17T05:21:32.804Z,1020.58
2019-02-17T05:22:32.482Z,1020.60
2019-02-17T05:23:31.745Z,1020.59
2019-02-17T05:24:31.736Z,1020.66
2019-02-17T05:25:31.710Z,1020.63
2019-02-17T05:26:31.709Z,1020.67
2019-02-17T05:27:32.034Z,1020.63
2019-02-17T05:28:31.684Z,1020.66
2019-02-17T05:29:33.141Z,1020.62
2019-02-17T05:30:31.661Z,1020.66
2019-02-17T05:31:31.652Z,1020.61
2019-02-17T05:32:31.644Z,1020.64
2019-02-17T05:33:32.030Z,1020.62
2019-02-17T05:34:31.670Z,1020.68
2019-02-17T05:35:31.619Z,1020.69
2019-02-17T05:36:31.712Z,1020.65
2019-02-17T05:37:31.606Z,1020.64
2019-02-17T05:38:31.608Z,1020.64
2019-02-17T05:39:31.774Z,1020.67
2019-02-17T05:40:31.558Z,1020.64
2019-02-17T05:41:31.552Z,1020.64
2019-02-17T05:42:31.528Z,1020.64
2019-02-17T05:43:31.522Z,1020.64
2019-02-17T05:44:31.527Z,1020.62
2019-02-17T05:45:31.714Z,1020.64
2019-02-17T05:46:31.522Z,1020.68
2019-02-17T05:47:31.490Z,1020.67
2019-02-17T05:48:31.468Z,1020.61
2019-02-17T05:49:32.583Z,1020.68
2019-02-17T05:50:31.934Z,1020.64
2019-02-17T05:51:31.535Z,1020.70
2019-02-17T05:52:31.452Z,1020.67
2019-02-17T05:53:31.419Z,1020.69
2019-02-17T05:54:31.413Z,1020.73
2019-02-17T05:55:31.417Z,1020.72
2019-02-17T05:56:31.622Z,1020.71
2019-02-17T05:57:31.383Z,1020.75
2019-02-17T05:58:33.589Z,1020.79
2019-02-17T05:59:31.375Z,1020.75
2019-02-17T06:00:31.450Z,1020.80
2019-02-17T06:01:31.330Z,1020.78
2019-02-17T06:02:33.060Z,1020.77
2019-02-17T06:03:31.341Z,1020.79
2019-02-17T06:04:31.516Z,1020.78
2019-02-17T06:05:34.065Z,1020.79
2019-02-17T06:06:31.273Z,1020.77
2019-02-17T06:07:31.261Z,1020.77
2019-02-17T06:08:33.899Z,1020.75
2019-02-17T06:09:32.183Z,1020.76
2019-02-17T06:10:31.488Z,1020.80
2019-02-17T06:11:31.342Z,1020.80
2019-02-17T06:12:31.501Z,1020.79
2019-02-17T06:13:31.472Z,1020.80
2019-02-17T06:14:32.242Z,1020.82
2019-02-17T06:15:31.174Z,1020.83
2019-02-17T06:16:31.171Z,1020.78
2019-02-17T06:17:31.153Z,1020.82
2019-02-17T06:18:31.141Z,1020.80
2019-02-17T06:19:32.233Z,1020.81
2019-02-17T06:20:31.609Z,1020.86
2019-02-17T06:21:31.575Z,1020.89
2019-02-17T06:22:31.118Z,1020.90
2019-02-17T06:23:31.149Z,1020.90
2019-02-17T06:24:31.085Z,1020.90
2019-02-17T06:25:31.210Z,1020.95
2019-02-17T06:26:31.260Z,1020.92
2019-02-17T06:27:31.102Z,1020.90
2019-02-17T06:28:31.038Z,1020.92
2019-02-17T06:29:31.029Z,1020.93
2019-02-17T06:30:31.347Z,1020.99
2019-02-17T06:31:31.550Z,1020.95
2019-02-17T06:32:31.002Z,1020.95
2019-02-17T06:33:31.238Z,1020.99
2019-02-17T06:34:30.974Z,1020.98
2019-02-17T06:35:30.969Z,1020.98
2019-02-17T06:36:30.952Z,1020.98
2019-02-17T06:37:31.138Z,1021.02
2019-02-17T06:38:30.954Z,1021.02
2019-02-17T06:39:32.010Z,1021.03
2019-02-17T06:40:31.006Z,1021.05
2019-02-17T06:41:30.894Z,1021.08
2019-02-17T06:42:31.078Z,1021.06
2019-02-17T06:43:31.322Z,1021.13
2019-02-17T06:44:31.475Z,1021.06
2019-02-17T06:45:30.855Z,1021.09
2019-02-17T06:46:30.846Z,1021.07
2019-02-17T06:47:30.851Z,1021.08
2019-02-17T06:48:32.858Z,1021.05
2019-02-17T06:49:30.874Z,1021.05
2019-02-17T06:50:32.822Z,1021.08
2019-02-17T06:51:30.787Z,1021.04
2019-02-17T06:52:30.779Z,1021.03
2019-02-17T06:53:30.792Z,1021.00
2019-02-17T06:54:30.781Z,1021.00
2019-02-17T06:55:30.811Z,1020.99
2019-02-17T06:56:31.071Z,1020.99
2019-02-17T06:57:30.837Z,1021.01
2019-02-17T06:58:30.736Z,1021.00
2019-02-17T06:59:30.783Z,1020.99
2019-02-17T07:00:30.702Z,1021.02
2019-02-17T07:01:30.900Z,1021.01
2019-02-17T07:02:31.675Z,1021.00
2019-02-17T07:03:31.313Z,1021.00
2019-02-17T07:04:30.651Z,1020.99
2019-02-17T07:05:30.662Z,1020.96
2019-02-17T07:06:30.900Z,1020.99
2019-02-17T07:07:30.880Z,1021.00
2019-02-17T07:08:31.944Z,1020.97
2019-02-17T07:09:30.734Z,1021.03
2019-02-17T07:10:30.586Z,1021.04
2019-02-17T07:11:31.895Z,1021.02
2019-02-17T07:12:30.878Z,1021.04
2019-02-17T07:13:30.601Z,1021.04
2019-02-17T07:14:30.658Z,1021.07
2019-02-17T07:15:30.536Z,1021.07
2019-02-17T07:16:30.532Z,1021.01
2019-02-17T07:17:35.246Z,1021.02
2019-02-17T07:18:30.511Z,1021.04
2019-02-17T07:19:30.487Z,1021.06
2019-02-17T07:20:30.464Z,1020.99
2019-02-17T07:21:30.482Z,1021.00
2019-02-17T07:22:30.463Z,1020.98
2019-02-17T07:23:30.656Z,1020.93
2019-02-17T07:24:30.673Z,1020.90
2019-02-17T07:25:31.275Z,1020.88
2019-02-17T07:26:30.407Z,1020.93
2019-02-17T07:27:30.537Z,1020.94
2019-02-17T07:28:30.393Z,1020.94
2019-02-17T07:29:30.580Z,1020.97
2019-02-17T07:30:30.382Z,1020.96
2019-02-17T07:31:34.999Z,1020.97
2019-02-17T07:32:30.346Z,1020.95
2019-02-17T07:33:45.277Z,1021.00
2019-02-17T07:34:30.356Z,1020.99
2019-02-17T07:35:30.791Z,1020.98
2019-02-17T07:36:30.315Z,1021.03
2019-02-17T07:37:33.758Z,1021.04
2019-02-17T07:38:30.749Z,1021.06
2019-02-17T07:39:30.283Z,1021.10
2019-02-17T07:40:30.248Z,1021.11
2019-02-17T07:41:31.076Z,1021.13
2019-02-17T07:42:30.557Z,1021.11
2019-02-17T07:43:30.745Z,1021.10
2019-02-17T07:44:34.135Z,1021.12
2019-02-17T07:45:30.743Z,1021.11
2019-02-17T07:46:40.297Z,1021.11
2019-02-17T07:47:30.500Z,1021.10
2019-02-17T07:48:30.715Z,1021.11
2019-02-17T07:49:30.196Z,1021.16
2019-02-17T07:50:30.471Z,1021.15
2019-02-17T07:51:35.602Z,1021.14
2019-02-17T07:52:30.267Z,1021.14
2019-02-17T07:53:30.677Z,1021.12
2019-02-17T07:54:30.960Z,1021.11
2019-02-17T07:55:30.607Z,1021.14
2019-02-17T07:56:30.104Z,1021.07
2019-02-17T07:57:32.711Z,1021.06
2019-02-17T07:58:30.190Z,1021.04
2019-02-17T07:59:30.223Z,1021.03
2019-02-17T08:00:30.035Z,1021.06
2019-02-17T08:01:45.047Z,1021.07
2019-02-17T08:02:31.636Z,1021.12
2019-02-17T08:03:30.258Z,1021.08
2019-02-17T08:04:30.474Z,1021.07
2019-02-17T08:05:30.218Z,1021.08
2019-02-17T08:06:30.482Z,1021.08
2019-02-17T08:08:39.746Z,1021.14
2019-02-17T08:09:39.692Z,1021.14
2019-02-17T08:10:39.695Z,1021.14
2019-02-17T08:11:39.682Z,1021.19
2019-02-17T08:12:40.522Z,1021.16
2019-02-17T08:13:39.683Z,1021.21
2019-02-17T08:14:39.665Z,1021.13
2019-02-17T08:15:39.636Z,1021.13
2019-02-17T08:16:39.625Z,1021.12
2019-02-17T08:17:39.685Z,1021.11
2019-02-17T08:18:39.635Z,1021.12
2019-02-17T08:19:39.582Z,1021.11
2019-02-17T08:20:39.612Z,1021.03
2019-02-17T08:21:39.572Z,1021.07
2019-02-17T08:22:39.557Z,1021.08
2019-02-17T08:23:39.582Z,1021.02
2019-02-17T08:24:39.547Z,1021.00
2019-02-17T08:25:39.558Z,1021.01
2019-02-17T08:26:39.519Z,1021.05
2019-02-17T08:27:39.513Z,1021.06
2019-02-17T08:28:39.536Z,1021.11
2019-02-17T08:29:39.489Z,1021.09
2019-02-17T08:30:39.479Z,1021.11
2019-02-17T08:31:39.476Z,1021.11
2019-02-17T08:32:39.459Z,1021.14
2019-02-17T08:33:39.460Z,1021.18
2019-02-17T08:34:39.443Z,1021.15
2019-02-17T08:35:39.449Z,1021.20
2019-02-17T08:36:39.429Z,1021.20
2019-02-17T08:37:39.420Z,1021.14
2019-02-17T08:38:39.434Z,1021.15
2019-02-17T08:39:39.404Z,1021.16
2019-02-17T08:40:39.377Z,1021.17
2019-02-17T08:41:39.362Z,1021.21
2019-02-17T08:42:39.363Z,1021.22
2019-02-17T08:43:39.322Z,1021.18
2019-02-17T08:44:39.972Z,1021.18
2019-02-17T08:45:39.301Z,1021.15
2019-02-17T08:46:39.330Z,1021.13
2019-02-17T08:47:39.293Z,1021.15
2019-02-17T08:48:39.277Z,1021.09
2019-02-17T08:49:39.285Z,1021.10
2019-02-17T08:50:39.252Z,1021.09
2019-02-17T08:51:39.266Z,1021.05
2019-02-17T08:52:39.254Z,1021.05
2019-02-17T08:53:39.257Z,1021.09
2019-02-17T08:54:39.210Z,1021.06
2019-02-17T08:55:39.194Z,1021.05
2019-02-17T08:56:39.210Z,1021.01
2019-02-17T08:57:39.201Z,1021.02
2019-02-17T08:58:39.195Z,1021.02
2019-02-17T08:59:39.167Z,1021.08
2019-02-17T09:00:39.145Z,1021.10
2019-02-17T09:01:40.485Z,1021.08
2019-02-17T09:02:40.707Z,1021.05
2019-02-17T09:03:39.112Z,1021.05
2019-02-17T09:04:39.126Z,1021.09
2019-02-17T09:05:44.117Z,1021.13
2019-02-17T09:06:40.115Z,1021.15
2019-02-17T09:07:39.820Z,1021.13
2019-02-17T09:08:54.104Z,1021.07
2019-02-17T09:09:39.076Z,1021.07
2019-02-17T09:10:39.038Z,1021.05
2019-02-17T09:11:39.051Z,1021.04
2019-02-17T09:12:39.015Z,1020.99
2019-02-17T09:13:39.044Z,1020.99
2019-02-17T09:14:39.019Z,1021.01
2019-02-17T09:15:38.988Z,1020.97
2019-02-17T09:16:38.986Z,1021.00
2019-02-17T09:17:38.956Z,1020.98
2019-02-17T09:18:38.935Z,1020.94
2019-02-17T09:19:38.985Z,1020.94
2019-02-17T09:20:38.921Z,1020.92
2019-02-17T09:21:38.911Z,1020.91
2019-02-17T09:22:38.980Z,1020.91
2019-02-17T09:23:39.042Z,1020.88
2019-02-17T09:24:39.006Z,1020.88
2019-02-17T09:25:38.864Z,1020.93
2019-02-17T09:26:38.908Z,1020.94
2019-02-17T09:27:38.875Z,1020.90
2019-02-17T09:28:38.856Z,1020.89
2019-02-17T09:29:38.827Z,1020.88
2019-02-17T09:30:38.802Z,1020.88
2019-02-17T09:31:38.800Z,1020.85
2019-02-17T09:32:38.805Z,1020.83
2019-02-17T09:33:38.802Z,1020.83
2019-02-17T09:34:38.791Z,1020.79
2019-02-17T09:35:38.758Z,1020.82
2019-02-17T09:36:38.738Z,1020.83
2019-02-17T09:37:38.728Z,1020.81
2019-02-17T09:38:38.734Z,1020.81
2019-02-17T09:39:38.860Z,1020.75
2019-02-17T09:40:38.738Z,1020.78
2019-02-17T09:41:38.686Z,1020.78
2019-02-17T09:42:38.689Z,1020.80
2019-02-17T09:43:38.669Z,1020.79
2019-02-17T09:44:38.657Z,1020.76
2019-02-17T09:45:38.682Z,1020.81
2019-02-17T09:46:38.654Z,1020.75
2019-02-17T09:47:38.635Z,1020.74
2019-02-17T09:48:38.658Z,1020.72
2019-02-17T09:49:38.612Z,1020.72
2019-02-17T09:50:38.600Z,1020.68
2019-02-17T09:51:38.612Z,1020.69
2019-02-17T09:52:38.585Z,1020.69
2019-02-17T09:53:38.619Z,1020.71
2019-02-17T09:54:38.608Z,1020.75
2019-02-17T09:55:38.550Z,1020.71
2019-02-17T09:56:38.526Z,1020.72
2019-02-17T09:57:38.515Z,1020.70
2019-02-17T09:58:38.515Z,1020.70
2019-02-17T09:59:38.570Z,1020.71
2019-02-17T10:00:38.482Z,1020.71
2019-02-17T10:01:38.487Z,1020.67
2019-02-17T10:02:38.459Z,1020.66
2019-02-17T10:03:38.455Z,1020.67
2019-02-17T10:04:38.461Z,1020.66
2019-02-17T10:05:38.432Z,1020.66
2019-02-17T10:06:38.428Z,1020.66
2019-02-17T10:07:38.423Z,1020.72
2019-02-17T10:08:38.422Z,1020.70
2019-02-17T10:09:38.392Z,1020.76
2019-02-17T10:10:38.391Z,1020.76
2019-02-17T10:11:38.428Z,1020.73
2019-02-17T10:12:38.385Z,1020.73
2019-02-17T10:13:38.407Z,1020.77
2019-02-17T10:14:38.343Z,1020.76
2019-02-17T10:15:38.339Z,1020.74
2019-02-17T10:16:38.305Z,1020.68
2019-02-17T10:17:38.335Z,1020.76
2019-02-17T10:18:38.295Z,1020.71
2019-02-17T10:19:38.308Z,1020.71
2019-02-17T10:20:38.269Z,1020.72
2019-02-17T10:21:38.269Z,1020.76
2019-02-17T10:22:38.238Z,1020.73
2019-02-17T10:23:38.237Z,1020.74
2019-02-17T10:24:38.217Z,1020.72
2019-02-17T10:25:38.246Z,1020.69
2019-02-17T10:26:38.208Z,1020.70
2019-02-17T10:27:38.197Z,1020.65
2019-02-17T10:28:42.425Z,1020.63
2019-02-17T10:29:38.165Z,1020.64
2019-02-17T10:30:38.155Z,1020.65
2019-02-17T10:31:38.193Z,1020.73
2019-02-17T10:32:39.226Z,1020.70
2019-02-17T10:33:38.126Z,1020.70
2019-02-17T10:34:38.117Z,1020.66
2019-02-17T10:35:40.381Z,1020.65
2019-02-17T10:36:38.091Z,1020.66
2019-02-17T10:37:38.098Z,1020.58
2019-02-17T10:38:38.075Z,1020.56
2019-02-17T10:39:38.147Z,1020.56
2019-02-17T10:40:38.067Z,1020.55
2019-02-17T10:41:38.032Z,1020.55
2019-02-17T10:42:38.026Z,1020.54
2019-02-17T10:43:38.036Z,1020.57
2019-02-17T10:44:38.028Z,1020.55
2019-02-17T10:45:38.004Z,1020.59
2019-02-17T10:46:37.976Z,1020.53
2019-02-17T10:47:37.981Z,1020.52
2019-02-17T10:48:37.962Z,1020.51
2019-02-17T10:49:37.978Z,1020.51
2019-02-17T10:50:37.958Z,1020.51
2019-02-17T10:51:37.929Z,1020.47
2019-02-17T10:52:37.916Z,1020.49
2019-02-17T10:53:37.903Z,1020.46
2019-02-17T10:54:37.917Z,1020.42
2019-02-17T10:55:37.885Z,1020.43
2019-02-17T10:56:37.904Z,1020.38
2019-02-17T10:57:37.858Z,1020.42
2019-02-17T10:58:37.843Z,1020.44
2019-02-17T10:59:37.844Z,1020.37
2019-02-17T11:00:37.846Z,1020.37
2019-02-17T11:01:37.842Z,1020.38
2019-02-17T11:02:46.681Z,1020.35
2019-02-17T11:03:38.800Z,1020.33
2019-02-17T11:04:37.791Z,1020.31
2019-02-17T11:05:37.800Z,1020.33
2019-02-17T11:06:37.796Z,1020.34
2019-02-17T11:07:37.870Z,1020.32
2019-02-17T11:08:37.758Z,1020.30
2019-02-17T11:09:37.732Z,1020.29
2019-02-17T11:10:37.733Z,1020.23
2019-02-17T11:11:37.718Z,1020.20
2019-02-17T11:12:37.709Z,1020.20
2019-02-17T11:13:37.731Z,1020.15
2019-02-17T11:14:37.704Z,1020.15
2019-02-17T11:15:37.667Z,1020.10
2019-02-17T11:16:37.674Z,1020.15
2019-02-17T11:17:38.476Z,1020.13
2019-02-17T11:18:37.637Z,1020.17
2019-02-17T11:19:37.670Z,1020.13
2019-02-17T11:20:37.638Z,1020.01
2019-02-17T11:21:37.607Z,1019.99
2019-02-17T11:22:37.598Z,1020.03
2019-02-17T11:23:37.585Z,1019.98
2019-02-17T11:24:37.586Z,1019.98
2019-02-17T11:25:37.607Z,1020.04
2019-02-17T11:26:37.576Z,1020.04
2019-02-17T11:27:37.596Z,1019.99
2019-02-17T11:28:37.525Z,1020.03
2019-02-17T11:29:37.532Z,1020.01
2019-02-17T11:30:37.522Z,1020.00
2019-02-17T11:31:37.508Z,1020.00
2019-02-17T11:32:37.486Z,1020.01
2019-02-17T11:33:37.492Z,1020.00
2019-02-17T11:34:37.468Z,1019.97
2019-02-17T11:35:37.448Z,1020.01
2019-02-17T11:36:37.465Z,1019.98
2019-02-17T11:37:37.468Z,1019.96
2019-02-17T11:38:37.414Z,1019.93
2019-02-17T11:39:40.042Z,1019.90
2019-02-17T11:40:37.435Z,1019.93
2019-02-17T11:41:37.382Z,1019.99
2019-02-17T11:42:37.386Z,1019.97
2019-02-17T11:43:37.411Z,1019.98
2019-02-17T11:44:37.403Z,1019.98
2019-02-17T11:45:37.343Z,1019.97
2019-02-17T11:46:37.331Z,1019.95
2019-02-17T11:47:37.341Z,1019.97
2019-02-17T11:48:37.310Z,1019.94
2019-02-17T11:49:37.309Z,1019.92
2019-02-17T11:50:37.320Z,1019.91
2019-02-17T11:51:37.333Z,1019.96
2019-02-17T11:52:37.292Z,1019.92
2019-02-17T11:53:37.279Z,1019.97
2019-02-17T11:54:37.248Z,1019.96
2019-02-17T11:55:37.255Z,1019.96
2019-02-17T11:56:37.218Z,1019.95
2019-02-17T11:57:37.228Z,1019.92
2019-02-17T11:58:37.222Z,1019.88
2019-02-17T11:59:37.207Z,1019.87
2019-02-17T12:00:37.189Z,1019.90
2019-02-17T12:01:37.193Z,1019.85
2019-02-17T12:02:37.175Z,1019.79
2019-02-17T12:03:37.146Z,1019.82
2019-02-17T12:04:37.153Z,1019.82
2019-02-17T12:05:37.128Z,1019.82
2019-02-17T12:06:37.157Z,1019.70